createdAt,value
2018-06-12T00:00:57.609Z,0.00
2018-06-12T00:01:57.641Z,0.00
2018-06-12T00:02:57.683Z,0.00
2018-06-12T00:03:57.708Z,0.00
2018-06-12T00:04:57.763Z,0.00
2018-06-12T00:05:57.790Z,0.00
2018-06-12T00:06:58.065Z,0.00
2018-06-12T00:07:57.842Z,0.00
2018-06-12T00:08:57.874Z,0.00
2018-06-12T00:09:57.960Z,0.00
2018-06-12T00:10:57.974Z,0.00
2018-06-12T00:11:57.991Z,0.00
2018-06-12T00:12:58.018Z,0.00
2018-06-12T00:13:58.292Z,0.00
2018-06-12T00:14:58.085Z,0.00
2018-06-12T00:15:58.108Z,0.00
2018-06-12T00:16:58.146Z,0.00
2018-06-12T00:17:58.179Z,0.00
2018-06-12T00:18:58.224Z,0.00
2018-06-12T00:19:58.246Z,0.00
2018-06-12T00:20:58.533Z,0.00
2018-06-12T00:21:58.309Z,0.00
2018-06-12T00:22:58.394Z,0.00
2018-06-12T00:23:58.377Z,0.00
2018-06-12T00:24:58.424Z,0.00
2018-06-12T00:25:58.442Z,0.00
2018-06-12T00:26:58.476Z,0.00
2018-06-12T00:27:58.820Z,0.00
2018-06-12T00:28:58.544Z,0.00
2018-06-12T00:29:58.597Z,0.00
2018-06-12T00:30:58.608Z,0.00
2018-06-12T00:31:58.657Z,0.00
2018-06-12T00:32:58.677Z,0.00
2018-06-12T00:33:58.719Z,0.00
2018-06-12T00:34:58.992Z,0.00
2018-06-12T00:35:58.774Z,0.00
2018-06-12T00:36:58.806Z,0.00
2018-06-12T00:37:59.147Z,0.00
2018-06-12T00:38:58.874Z,0.00
2018-06-12T00:39:58.911Z,0.00
2018-06-12T00:40:58.941Z,0.00
2018-06-12T00:41:59.235Z,0.00
2018-06-12T00:42:59.093Z,0.00
2018-06-12T00:43:59.044Z,0.00
2018-06-12T00:44:59.083Z,0.00
2018-06-12T00:45:59.113Z,0.00
2018-06-12T00:46:59.167Z,0.00
2018-06-12T00:47:59.172Z,0.00
2018-06-12T00:48:59.456Z,0.00
2018-06-12T00:49:59.238Z,0.00
2018-06-12T00:50:59.284Z,0.00
2018-06-12T00:51:59.357Z,0.00
2018-06-12T00:52:59.347Z,0.00
2018-06-12T00:53:59.378Z,0.00
2018-06-12T00:54:59.434Z,0.00
2018-06-12T00:55:59.741Z,0.00
2018-06-12T00:56:59.486Z,0.00
2018-06-12T00:57:59.503Z,0.00
2018-06-12T00:58:59.638Z,0.00
2018-06-12T00:59:59.573Z,0.00
2018-06-12T01:00:59.607Z,0.00
2018-06-12T01:01:59.889Z,0.00
2018-06-12T01:02:59.677Z,0.00
2018-06-12T01:03:59.700Z,0.00
2018-06-12T01:04:59.742Z,0.00
2018-06-12T01:05:59.779Z,0.00
2018-06-12T01:06:59.802Z,0.00
2018-06-12T01:08:00.146Z,0.00
2018-06-12T01:08:59.870Z,0.00
2018-06-12T01:09:59.910Z,0.00
2018-06-12T01:10:59.936Z,0.00
2018-06-12T01:11:59.965Z,0.00
2018-06-12T01:13:00.007Z,0.00
2018-06-12T01:14:00.283Z,0.00
2018-06-12T01:15:00.319Z,0.00
2018-06-12T01:16:00.122Z,0.00
2018-06-12T01:17:00.136Z,0.00
2018-06-12T01:18:00.165Z,0.00
2018-06-12T01:19:00.199Z,0.00
2018-06-12T01:20:00.230Z,0.00
2018-06-12T01:21:00.270Z,0.00
2018-06-12T01:22:00.294Z,0.00
2018-06-12T01:23:00.339Z,0.00
2018-06-12T01:24:00.362Z,0.00
2018-06-12T01:25:00.429Z,0.00
2018-06-12T01:26:00.732Z,0.00
2018-06-12T01:27:00.462Z,0.00
2018-06-12T01:28:00.511Z,0.00
2018-06-12T01:29:00.549Z,0.00
2018-06-12T01:30:00.561Z,0.00
2018-06-12T01:31:00.647Z,0.00
2018-06-12T01:32:00.925Z,0.00
2018-06-12T01:33:00.663Z,0.00
2018-06-12T01:34:00.690Z,0.00
2018-06-12T01:35:00.742Z,0.00
2018-06-12T01:36:00.764Z,0.00
2018-06-12T01:37:00.792Z,0.00
2018-06-12T01:38:01.072Z,0.00
2018-06-12T01:40:00.887Z,0.00
2018-06-12T01:41:00.926Z,0.00
2018-06-12T01:42:00.957Z,0.00
2018-06-12T01:43:00.996Z,0.00
2018-06-12T01:44:01.328Z,0.00
2018-06-12T01:45:01.076Z,0.00
2018-06-12T01:46:01.089Z,0.00
2018-06-12T01:47:01.325Z,0.00
2018-06-12T01:48:01.154Z,0.00
2018-06-12T01:49:01.184Z,0.00
2018-06-12T01:50:01.532Z,0.00
2018-06-12T01:51:01.253Z,0.00
2018-06-12T01:52:01.288Z,0.00
2018-06-12T01:53:01.317Z,0.00
2018-06-12T01:54:01.369Z,0.00
2018-06-12T01:55:01.385Z,0.00
2018-06-12T01:56:01.720Z,0.00
2018-06-12T01:57:01.449Z,0.00
2018-06-12T01:58:01.479Z,0.00
2018-06-12T01:59:01.515Z,0.00
2018-06-12T02:00:01.548Z,0.00
2018-06-12T02:01:01.579Z,0.00
2018-06-12T02:03:01.949Z,0.00
2018-06-12T02:04:01.677Z,0.00
2018-06-12T02:05:01.710Z,0.00
2018-06-12T02:06:01.746Z,0.00
2018-06-12T02:07:01.980Z,0.00
2018-06-12T02:08:01.807Z,0.00
2018-06-12T02:09:02.344Z,0.00
2018-06-12T02:10:01.883Z,0.00
2018-06-12T02:11:01.910Z,0.00
2018-06-12T02:12:01.959Z,0.00
2018-06-12T02:13:01.974Z,0.00
2018-06-12T02:14:02.007Z,0.00
2018-06-12T02:15:02.339Z,0.00
2018-06-12T02:16:02.069Z,0.00
2018-06-12T02:17:02.102Z,0.00
2018-06-12T02:18:02.139Z,0.00
2018-06-12T02:19:02.217Z,0.00
2018-06-12T02:20:02.219Z,0.00
2018-06-12T02:21:02.489Z,0.00
2018-06-12T02:22:02.570Z,0.00
2018-06-12T02:23:02.299Z,0.00
2018-06-12T02:24:02.386Z,0.00
2018-06-12T02:25:02.365Z,0.00
2018-06-12T02:26:02.449Z,0.00
2018-06-12T02:27:02.526Z,0.00
2018-06-12T02:28:02.514Z,0.00
2018-06-12T02:29:02.511Z,0.00
2018-06-12T02:30:02.532Z,0.00
2018-06-12T02:31:02.810Z,0.00
2018-06-12T02:32:02.593Z,0.00
2018-06-12T02:33:02.676Z,0.00
2018-06-12T02:34:02.659Z,0.00
2018-06-12T02:36:03.227Z,0.00
2018-06-12T02:37:02.807Z,0.00
2018-06-12T02:38:03.039Z,0.00
2018-06-12T02:39:03.182Z,0.00
2018-06-12T02:40:02.902Z,0.00
2018-06-12T02:41:02.952Z,0.00
2018-06-12T02:42:02.968Z,0.00
2018-06-12T02:43:03.312Z,0.00
2018-06-12T02:44:02.997Z,0.00
2018-06-12T02:45:03.022Z,0.00
2018-06-12T02:46:03.076Z,0.00
2018-06-12T02:47:03.089Z,0.00
2018-06-12T02:48:03.163Z,4.00
2018-06-12T02:49:03.149Z,4.00
2018-06-12T02:51:03.508Z,0.00
2018-06-12T02:52:03.347Z,0.00
2018-06-12T02:53:03.333Z,4.00
2018-06-12T02:54:03.314Z,4.00
2018-06-12T02:55:03.700Z,4.00
2018-06-12T02:56:03.384Z,4.00
2018-06-12T02:57:03.616Z,4.00
2018-06-12T02:58:03.693Z,4.00
2018-06-12T02:59:03.479Z,8.00
2018-06-12T03:00:03.574Z,8.00
2018-06-12T03:01:03.551Z,8.00
2018-06-12T03:02:03.572Z,8.00
2018-06-12T03:03:03.610Z,8.00
2018-06-12T03:04:03.637Z,12.00
2018-06-12T03:06:03.953Z,16.00
2018-06-12T03:07:03.733Z,16.00
2018-06-12T03:08:04.044Z,20.00
2018-06-12T03:09:03.843Z,20.00
2018-06-12T03:10:03.833Z,24.00
2018-06-12T03:11:03.874Z,24.00
2018-06-12T03:12:03.892Z,24.00
2018-06-12T03:13:04.226Z,28.00
2018-06-12T03:14:03.962Z,28.00
2018-06-12T03:15:04.044Z,32.00
2018-06-12T03:16:04.048Z,40.00
2018-06-12T03:17:04.056Z,36.00
2018-06-12T03:18:04.500Z,40.00
2018-06-12T03:19:04.174Z,48.00
2018-06-12T03:20:04.452Z,48.00
2018-06-12T03:21:04.389Z,52.00
2018-06-12T03:22:04.222Z,56.00
2018-06-12T03:23:04.250Z,60.00
2018-06-12T03:24:04.283Z,64.00
2018-06-12T03:26:04.657Z,72.00
2018-06-12T03:27:04.450Z,76.00
2018-06-12T03:28:04.411Z,84.00
2018-06-12T03:29:04.459Z,88.00
2018-06-12T03:30:04.483Z,92.00
2018-06-12T03:31:04.511Z,100.00
2018-06-12T03:32:04.757Z,108.00
2018-06-12T03:33:04.822Z,112.00
2018-06-12T03:34:04.614Z,112.00
2018-06-12T03:35:04.639Z,112.00
2018-06-12T03:36:04.669Z,116.00
2018-06-12T03:37:04.751Z,120.00
2018-06-12T03:38:04.740Z,128.00
2018-06-12T03:39:05.018Z,132.00
2018-06-12T03:40:04.809Z,136.00
2018-06-12T03:41:04.833Z,144.00
2018-06-12T03:42:04.863Z,156.00
2018-06-12T03:43:04.904Z,164.00
2018-06-12T03:44:04.932Z,176.00
2018-06-12T03:45:05.265Z,184.00
2018-06-12T03:46:04.995Z,200.00
2018-06-12T03:47:05.030Z,212.00
2018-06-12T03:48:05.074Z,224.00
2018-06-12T03:49:05.102Z,240.00
2018-06-12T03:50:05.206Z,252.00
2018-06-12T03:51:05.460Z,268.00
2018-06-12T03:52:05.204Z,280.00
2018-06-12T03:53:05.218Z,292.00
2018-06-12T03:54:05.301Z,304.00
2018-06-12T03:55:05.306Z,312.00
2018-06-12T03:56:05.319Z,320.00
2018-06-12T03:57:06.004Z,328.00
2018-06-12T03:58:05.435Z,336.00
2018-06-12T03:59:05.551Z,348.00
2018-06-12T04:00:05.459Z,356.00
2018-06-12T04:01:05.520Z,360.00
2018-06-12T04:02:05.623Z,372.00
2018-06-12T04:03:05.917Z,380.00
2018-06-12T04:04:05.621Z,388.00
2018-06-12T04:05:05.703Z,396.00
2018-06-12T04:06:05.645Z,400.00
2018-06-12T04:07:05.692Z,404.00
2018-06-12T04:09:05.985Z,420.00
2018-06-12T04:10:05.780Z,432.00
2018-06-12T04:11:05.805Z,444.00
2018-06-12T04:12:05.888Z,464.00
2018-06-12T04:13:06.172Z,476.00
2018-06-12T04:14:05.948Z,484.00
2018-06-12T04:15:06.328Z,496.00
2018-06-12T04:16:05.976Z,504.00
2018-06-12T04:18:06.030Z,516.00
2018-06-12T04:19:06.059Z,520.00
2018-06-12T04:20:06.139Z,520.00
2018-06-12T04:21:06.427Z,524.00
2018-06-12T04:23:06.189Z,516.00
2018-06-12T04:24:06.230Z,512.00
2018-06-12T04:25:06.295Z,508.00
2018-06-12T04:26:06.283Z,500.00
2018-06-12T04:27:06.971Z,496.00
2018-06-12T04:28:06.375Z,496.00
2018-06-12T04:29:06.440Z,500.00
2018-06-12T04:31:06.497Z,520.00
2018-06-12T04:32:06.560Z,536.00
2018-06-12T04:33:07.322Z,548.00
2018-06-12T04:34:06.551Z,568.00
2018-06-12T04:35:06.706Z,584.00
2018-06-12T04:36:06.656Z,608.00
2018-06-12T04:37:06.661Z,632.00
2018-06-12T04:38:07.036Z,660.00
2018-06-12T04:39:07.009Z,688.00
2018-06-12T04:40:06.738Z,720.00
2018-06-12T04:41:06.769Z,748.00
2018-06-12T04:42:06.867Z,780.00
2018-06-12T04:43:06.842Z,812.00
2018-06-12T04:44:07.235Z,844.00
2018-06-12T04:45:07.614Z,868.00
2018-06-12T04:46:07.249Z,892.00
2018-06-12T04:47:07.021Z,916.00
2018-06-12T04:48:07.058Z,944.00
2018-06-12T04:49:07.692Z,968.00
2018-06-12T04:51:07.402Z,1032.00
2018-06-12T04:52:07.132Z,1068.00
2018-06-12T04:53:07.174Z,1100.00
2018-06-12T04:54:07.249Z,1140.00
2018-06-12T04:55:07.234Z,1176.00
2018-06-12T04:56:07.272Z,1216.00
2018-06-12T04:57:07.307Z,1252.00
2018-06-12T04:59:07.675Z,1336.00
2018-06-12T05:00:07.406Z,1376.00
2018-06-12T05:01:07.931Z,1420.00
2018-06-12T05:02:07.718Z,1444.00
2018-06-12T05:04:07.575Z,1456.00
2018-06-12T05:05:07.638Z,1452.00
2018-06-12T05:06:07.901Z,1456.00
2018-06-12T05:07:07.890Z,1452.00
2018-06-12T05:09:07.999Z,1436.00
2018-06-12T05:10:07.774Z,1432.00
2018-06-12T05:11:07.760Z,1424.00
2018-06-12T05:12:08.143Z,1428.00
2018-06-12T05:13:08.285Z,1444.00
2018-06-12T05:14:07.920Z,1460.00
2018-06-12T05:15:07.961Z,1476.00
2018-06-12T05:17:07.964Z,1508.00
2018-06-12T05:18:08.122Z,1520.00
2018-06-12T05:19:08.024Z,1520.00
2018-06-12T05:20:08.361Z,1508.00
2018-06-12T05:22:08.186Z,1468.00
2018-06-12T05:23:08.158Z,1460.00
2018-06-12T05:24:08.540Z,1472.00
2018-06-12T05:25:08.225Z,1504.00
2018-06-12T05:26:08.330Z,1532.00
2018-06-12T05:27:08.652Z,1520.00
2018-06-12T05:29:08.374Z,1432.00
2018-06-12T05:30:08.590Z,1384.00
2018-06-12T05:31:09.259Z,1344.00
2018-06-12T05:32:08.500Z,1316.00
2018-06-12T05:33:08.841Z,1304.00
2018-06-12T05:34:09.021Z,1308.00
2018-06-12T05:35:08.605Z,1324.00
2018-06-12T05:37:08.685Z,1388.00
2018-06-12T05:38:08.714Z,1428.00
2018-06-12T05:39:08.735Z,1480.00
2018-06-12T05:40:08.731Z,1544.00
2018-06-12T05:41:09.468Z,1620.00
2018-06-12T05:42:08.805Z,1684.00
2018-06-12T05:43:09.028Z,1740.00
2018-06-12T05:44:08.909Z,1776.00
2018-06-12T05:45:09.010Z,1792.00
2018-06-12T05:46:09.233Z,1804.00
2018-06-12T05:47:09.266Z,1804.00
2018-06-12T05:48:09.338Z,1808.00
2018-06-12T05:49:09.072Z,1816.00
2018-06-12T05:50:09.423Z,1824.00
2018-06-12T05:51:09.298Z,1844.00
2018-06-12T05:52:09.501Z,1868.00
2018-06-12T05:53:09.245Z,1908.00
2018-06-12T05:54:09.248Z,1936.00
2018-06-12T05:55:09.526Z,1948.00
2018-06-12T05:56:09.256Z,1936.00
2018-06-12T05:57:09.297Z,1912.00
2018-06-12T05:59:09.411Z,1884.00
2018-06-12T06:00:09.441Z,1892.00
2018-06-12T06:01:09.485Z,1896.00
2018-06-12T06:02:09.715Z,1892.00
2018-06-12T06:03:09.547Z,1884.00
2018-06-12T06:04:09.524Z,1872.00
2018-06-12T06:05:09.605Z,1876.00
2018-06-12T06:06:09.645Z,1892.00
2018-06-12T06:07:09.989Z,1928.00
2018-06-12T06:08:09.911Z,1964.00
2018-06-12T06:09:10.003Z,2000.00
2018-06-12T06:10:09.992Z,2032.00
2018-06-12T06:11:10.115Z,2068.00
2018-06-12T06:12:09.795Z,2104.00
2018-06-12T06:13:09.885Z,2136.00
2018-06-12T06:14:10.468Z,2176.00
2018-06-12T06:15:09.905Z,2220.00
2018-06-12T06:16:10.387Z,2276.00
2018-06-12T06:17:10.237Z,2344.00
2018-06-12T06:18:10.004Z,2416.00
2018-06-12T06:19:10.232Z,2492.00
2018-06-12T06:20:10.062Z,2580.00
2018-06-12T06:21:10.100Z,2664.00
2018-06-12T06:22:10.382Z,2740.00
2018-06-12T06:23:10.423Z,2808.00
2018-06-12T06:24:10.252Z,2844.00
2018-06-12T06:25:10.289Z,2872.00
2018-06-12T06:26:10.456Z,2900.00
2018-06-12T06:28:10.692Z,2972.00
2018-06-12T06:29:10.411Z,3028.00
2018-06-12T06:30:10.510Z,3084.00
2018-06-12T06:31:10.789Z,3144.00
2018-06-12T06:32:10.471Z,3196.00
2018-06-12T06:33:10.853Z,3252.00
2018-06-12T06:34:10.890Z,3308.00
2018-06-12T06:35:10.618Z,3352.00
2018-06-12T06:36:10.712Z,3404.00
2018-06-12T06:37:10.901Z,3464.00
2018-06-12T06:38:10.675Z,3532.00
2018-06-12T06:39:11.489Z,3608.00
2018-06-12T06:40:10.987Z,3680.00
2018-06-12T06:41:10.826Z,3732.00
2018-06-12T06:42:11.055Z,3764.00
2018-06-12T06:43:10.889Z,3792.00
2018-06-12T06:44:10.940Z,3820.00
2018-06-12T06:49:12.140Z,4000.00
2018-06-12T06:58:12.918Z,4516.00
2018-06-12T06:59:15.484Z,4528.00
2018-06-12T07:02:12.938Z,4512.00
2018-06-12T07:04:12.759Z,4524.00
2018-06-12T07:05:15.123Z,4552.00
2018-06-12T07:06:12.969Z,4568.00
2018-06-12T07:09:12.486Z,4524.00
2018-06-12T07:11:13.101Z,4480.00
2018-06-12T07:12:12.701Z,4468.00
2018-06-12T07:13:13.932Z,4476.00
2018-06-12T07:14:14.148Z,4476.00
2018-06-12T07:19:13.261Z,4440.00
2018-06-12T07:20:13.162Z,4448.00
2018-06-12T07:21:13.771Z,4452.00
2018-06-12T07:23:14.402Z,4484.00
2018-06-12T07:24:13.598Z,4508.00
2018-06-12T07:25:15.147Z,4544.00
2018-06-12T07:28:14.444Z,4700.00
2018-06-12T07:30:15.582Z,4796.00
2018-06-12T07:34:33.937Z,4780.00
2018-06-12T07:38:16.969Z,4728.00
2018-06-12T07:39:14.105Z,4736.00
2018-06-12T07:40:15.866Z,4744.00
2018-06-12T07:43:13.923Z,4776.00
2018-06-12T07:46:15.480Z,4848.00
2018-06-12T07:51:13.675Z,5004.00
2018-06-12T07:52:14.086Z,5024.00
2018-06-12T07:53:13.234Z,5052.00
2018-06-12T07:54:13.572Z,5088.00
2018-06-12T07:55:13.314Z,5116.00
2018-06-12T07:56:13.707Z,5140.00
2018-06-12T07:57:13.376Z,5164.00
2018-06-12T07:58:13.408Z,5184.00
2018-06-12T07:59:13.442Z,5180.00
2018-06-12T08:00:13.487Z,5160.00
2018-06-12T08:01:13.810Z,5164.00
2018-06-12T08:02:13.596Z,5180.00
2018-06-12T08:03:13.638Z,5192.00
2018-06-12T08:04:13.681Z,5204.00
2018-06-12T08:05:13.682Z,5196.00
2018-06-12T08:06:14.240Z,5160.00
2018-06-12T08:07:13.777Z,5096.00
2018-06-12T08:08:14.006Z,5012.00
2018-06-12T08:09:13.848Z,4920.00
2018-06-12T08:10:13.821Z,4820.00
2018-06-12T08:11:13.906Z,4736.00
2018-06-12T08:12:13.943Z,4684.00
2018-06-12T08:13:13.973Z,4656.00
2018-06-12T08:14:13.963Z,4648.00
2018-06-12T08:15:14.500Z,4652.00
2018-06-12T08:16:14.032Z,4660.00
2018-06-12T08:17:14.074Z,4676.00
2018-06-12T08:18:14.149Z,4696.00
2018-06-12T08:19:14.904Z,4712.00
2018-06-12T08:20:14.225Z,4732.00
2018-06-12T08:21:14.207Z,4744.00
2018-06-12T08:22:14.492Z,4752.00
2018-06-12T08:23:14.312Z,4724.00
2018-06-12T08:24:14.309Z,4644.00
2018-06-12T08:25:14.415Z,4560.00
2018-06-12T08:26:14.430Z,4512.00
2018-06-12T08:27:14.472Z,4520.00
2018-06-12T08:28:14.496Z,4568.00
2018-06-12T08:29:14.894Z,4644.00
2018-06-12T08:30:14.813Z,4716.00
2018-06-12T08:31:14.606Z,4764.00
2018-06-12T08:32:14.605Z,4796.00
2018-06-12T08:33:14.683Z,4816.00
2018-06-12T08:34:14.658Z,4832.00
2018-06-12T08:35:14.745Z,4900.00
2018-06-12T08:36:15.230Z,4968.00
2018-06-12T08:38:14.853Z,5168.00
2018-06-12T08:40:14.902Z,5280.00
2018-06-12T08:41:14.905Z,5300.00
2018-06-12T08:42:14.987Z,5332.00
2018-06-12T08:43:15.630Z,5384.00
2018-06-12T08:44:15.005Z,5452.00
2018-06-12T08:45:15.047Z,5524.00
2018-06-12T08:46:15.429Z,5596.00
2018-06-12T08:47:15.169Z,5660.00
2018-06-12T08:48:15.357Z,5700.00
2018-06-12T08:49:15.198Z,5744.00
2018-06-12T08:50:15.870Z,5788.00
2018-06-12T08:51:15.250Z,5828.00
2018-06-12T08:52:15.354Z,5856.00
2018-06-12T08:53:15.329Z,5864.00
2018-06-12T08:54:15.403Z,5860.00
2018-06-12T08:55:15.439Z,5844.00
2018-06-12T08:56:15.425Z,5820.00
2018-06-12T08:57:15.710Z,5792.00
2018-06-12T08:58:16.142Z,5776.00
2018-06-12T08:59:15.586Z,5772.00
2018-06-12T09:00:15.628Z,5796.00
2018-06-12T09:01:15.659Z,5836.00
2018-06-12T09:02:15.688Z,5876.00
2018-06-12T09:03:16.022Z,5912.00
2018-06-12T09:05:15.940Z,5956.00
2018-06-12T09:06:15.782Z,5964.00
2018-06-12T09:07:15.921Z,5976.00
2018-06-12T09:08:15.853Z,6004.00
2018-06-12T09:09:16.194Z,6048.00
2018-06-12T09:10:16.167Z,6112.00
2018-06-12T09:11:15.952Z,6192.00
2018-06-12T09:12:16.030Z,6256.00
2018-06-12T09:13:16.075Z,6268.00
2018-06-12T09:15:16.399Z,6140.00
2018-06-12T09:16:16.375Z,6092.00
2018-06-12T09:17:16.216Z,6100.00
2018-06-12T09:18:16.245Z,6184.00
2018-06-12T09:19:16.282Z,6332.00
2018-06-12T09:20:16.320Z,6504.00
2018-06-12T09:21:16.983Z,6668.00
2018-06-12T09:22:16.346Z,6824.00
2018-06-12T09:23:16.409Z,6976.00
2018-06-12T09:24:16.458Z,7128.00
2018-06-12T09:25:16.465Z,7244.00
2018-06-12T09:26:16.478Z,7344.00
2018-06-12T09:27:16.847Z,7420.00
2018-06-12T09:28:16.802Z,7464.00
2018-06-12T09:29:16.622Z,7468.00
2018-06-12T09:31:16.733Z,7424.00
2018-06-12T09:32:16.700Z,7360.00
2018-06-12T09:33:16.981Z,7260.00
2018-06-12T09:34:16.760Z,7156.00
2018-06-12T09:35:16.792Z,7052.00
2018-06-12T09:36:16.895Z,6948.00
2018-06-12T09:37:16.863Z,6860.00
2018-06-12T09:38:16.902Z,6784.00
2018-06-12T09:39:17.241Z,6696.00
2018-06-12T09:40:17.023Z,6596.00
2018-06-12T09:42:17.243Z,6380.00
2018-06-12T09:43:17.145Z,6260.00
2018-06-12T09:44:17.163Z,6128.00
2018-06-12T09:45:17.417Z,6004.00
2018-06-12T09:47:17.231Z,5780.00
2018-06-12T09:48:17.310Z,5696.00
2018-06-12T09:49:17.292Z,5660.00
2018-06-12T09:50:17.389Z,5652.00
2018-06-12T09:51:17.358Z,5672.00
2018-06-12T09:52:17.449Z,5704.00
2018-06-12T09:53:17.428Z,5744.00
2018-06-12T09:54:17.495Z,5784.00
2018-06-12T09:55:17.500Z,5816.00
2018-06-12T09:56:17.601Z,5832.00
2018-06-12T09:57:17.978Z,5840.00
2018-06-12T09:58:17.658Z,5832.00
2018-06-12T09:59:17.696Z,5824.00
2018-06-12T10:00:17.883Z,5816.00
2018-06-12T10:01:18.068Z,5816.00
2018-06-12T10:02:17.799Z,5816.00
2018-06-12T10:04:18.169Z,5808.00
2018-06-12T10:05:18.325Z,5800.00
2018-06-12T10:06:18.267Z,5800.00
2018-06-12T10:07:17.926Z,5796.00
2018-06-12T10:08:18.006Z,5788.00
2018-06-12T10:09:17.999Z,5772.00
2018-06-12T10:10:18.398Z,5752.00
2018-06-12T10:11:18.128Z,5740.00
2018-06-12T10:12:18.159Z,5744.00
2018-06-12T10:13:18.136Z,5752.00
2018-06-12T10:14:18.172Z,5748.00
2018-06-12T10:15:18.260Z,5752.00
2018-06-12T10:17:18.830Z,5800.00
2018-06-12T10:18:18.317Z,5848.00
2018-06-12T10:19:18.731Z,5900.00
2018-06-12T10:20:18.433Z,5952.00
2018-06-12T10:21:18.529Z,5988.00
2018-06-12T10:23:18.797Z,6020.00
2018-06-12T10:24:18.906Z,6028.00
2018-06-12T10:25:18.560Z,6044.00
2018-06-12T10:26:18.669Z,6064.00
2018-06-12T10:27:18.987Z,6084.00
2018-06-12T10:28:18.682Z,6112.00
2018-06-12T10:29:19.521Z,6136.00
2018-06-12T10:30:19.004Z,6168.00
2018-06-12T10:31:18.773Z,6200.00
2018-06-12T10:32:18.814Z,6228.00
2018-06-12T10:33:18.841Z,6252.00
2018-06-12T10:34:18.929Z,6276.00
2018-06-12T10:35:18.910Z,6292.00
2018-06-12T10:36:19.212Z,6300.00
2018-06-12T10:37:19.514Z,6300.00
2018-06-12T10:38:19.043Z,6292.00
2018-06-12T10:40:19.098Z,6240.00
2018-06-12T10:41:19.173Z,6192.00
2018-06-12T10:43:19.546Z,6076.00
2018-06-12T10:44:19.277Z,6016.00
2018-06-12T10:45:19.268Z,5972.00
2018-06-12T10:46:19.305Z,5948.00
2018-06-12T10:47:19.388Z,5948.00
2018-06-12T10:48:19.380Z,5956.00
2018-06-12T10:49:19.454Z,5956.00
2018-06-12T10:50:20.044Z,5956.00
2018-06-12T10:51:19.527Z,5964.00
2018-06-12T10:52:19.525Z,5968.00
2018-06-12T10:53:19.903Z,5976.00
2018-06-12T10:54:19.947Z,5984.00
2018-06-12T10:55:19.629Z,5992.00
2018-06-12T10:56:19.725Z,5992.00
2018-06-12T10:57:20.021Z,5988.00
2018-06-12T10:58:19.724Z,5976.00
2018-06-12T10:59:19.757Z,5948.00
2018-06-12T11:00:19.798Z,5900.00
2018-06-12T11:01:19.832Z,5836.00
2018-06-12T11:02:20.270Z,5752.00
2018-06-12T11:03:19.958Z,5668.00
2018-06-12T11:04:20.235Z,5580.00
2018-06-12T11:05:19.977Z,5500.00
2018-06-12T11:06:20.054Z,5416.00
2018-06-12T11:07:20.093Z,5324.00
2018-06-12T11:08:20.083Z,5220.00
2018-06-12T11:09:20.112Z,5112.00
2018-06-12T11:10:20.219Z,5000.00
2018-06-12T11:11:20.637Z,4892.00
2018-06-12T11:12:20.218Z,4808.00
2018-06-12T11:13:20.656Z,4764.00
2018-06-12T11:14:20.359Z,4756.00
2018-06-12T11:15:20.334Z,4768.00
2018-06-12T11:16:20.417Z,4804.00
2018-06-12T11:17:20.456Z,4852.00
2018-06-12T11:18:20.777Z,4940.00
2018-06-12T11:19:20.498Z,5056.00
2018-06-12T11:20:20.548Z,5200.00
2018-06-12T11:21:20.739Z,5364.00
2018-06-12T11:22:20.640Z,5544.00
2018-06-12T11:23:20.685Z,5732.00
2018-06-12T11:24:20.690Z,5936.00
2018-06-12T11:25:21.049Z,6148.00
2018-06-12T11:26:20.762Z,6360.00
2018-06-12T11:27:20.805Z,6580.00
2018-06-12T11:28:20.785Z,6820.00
2018-06-12T11:30:21.360Z,7332.00
2018-06-12T11:31:20.898Z,7592.00
2018-06-12T11:32:20.926Z,7864.00
2018-06-12T11:33:20.963Z,8160.00
2018-06-12T11:34:21.608Z,8472.00
2018-06-12T11:35:21.037Z,8776.00
2018-06-12T11:36:21.066Z,9004.00
2018-06-12T11:37:21.601Z,9080.00
2018-06-12T11:39:21.420Z,8720.00
2018-06-12T11:40:21.259Z,8432.00
2018-06-12T11:42:21.530Z,7948.00
2018-06-12T11:45:21.839Z,7884.00
2018-06-12T11:46:21.444Z,7992.00
2018-06-12T11:47:21.667Z,8176.00
2018-06-12T11:48:21.554Z,8484.00
2018-06-12T11:49:21.530Z,8880.00
2018-06-12T11:50:21.562Z,9240.00
2018-06-12T11:51:21.962Z,9480.00
2018-06-12T11:52:21.692Z,9572.00
2018-06-12T11:53:21.686Z,9484.00
2018-06-12T11:54:21.768Z,9140.00
2018-06-12T11:55:21.741Z,8644.00
2018-06-12T11:56:21.782Z,8316.00
2018-06-12T11:57:22.186Z,8312.00
2018-06-12T11:58:21.954Z,8444.00
2018-06-12T11:59:21.932Z,8492.00
2018-06-12T12:00:21.927Z,8316.00
2018-06-12T12:01:22.006Z,8088.00
2018-06-12T12:02:21.990Z,7872.00
2018-06-12T12:03:22.352Z,7604.00
2018-06-12T12:04:22.065Z,7292.00
2018-06-12T12:05:22.111Z,6948.00
2018-06-12T12:06:22.142Z,6488.00
2018-06-12T12:07:22.169Z,5984.00
2018-06-12T12:08:22.221Z,5564.00
2018-06-12T12:09:22.547Z,5184.00
2018-06-12T12:10:22.283Z,4848.00
2018-06-12T12:11:22.317Z,4620.00
2018-06-12T12:12:22.391Z,4468.00
2018-06-12T12:13:22.386Z,4360.00
2018-06-12T12:14:22.424Z,4232.00
2018-06-12T12:15:22.769Z,4080.00
2018-06-12T12:16:23.463Z,3948.00
2018-06-12T12:17:22.528Z,3972.00
2018-06-12T12:18:22.565Z,4148.00
2018-06-12T12:19:22.598Z,4368.00
2018-06-12T12:20:22.637Z,4556.00
2018-06-12T12:21:22.925Z,4668.00
2018-06-12T12:22:22.754Z,4728.00
2018-06-12T12:23:22.817Z,4796.00
2018-06-12T12:24:22.776Z,4888.00
2018-06-12T12:25:22.848Z,4948.00
2018-06-12T12:26:22.845Z,5000.00
2018-06-12T12:27:23.146Z,5104.00
2018-06-12T12:28:22.921Z,5272.00
2018-06-12T12:29:22.954Z,5472.00
2018-06-12T12:30:23.011Z,5596.00
2018-06-12T12:31:23.025Z,5656.00
2018-06-12T12:32:23.163Z,5712.00
2018-06-12T12:33:23.393Z,5800.00
2018-06-12T12:34:23.241Z,5900.00
2018-06-12T12:35:23.167Z,6000.00
2018-06-12T12:36:23.210Z,6088.00
2018-06-12T12:37:23.280Z,6140.00
2018-06-12T12:38:23.278Z,6132.00
2018-06-12T12:39:23.566Z,6100.00
2018-06-12T12:40:23.342Z,6064.00
2018-06-12T12:41:23.438Z,6000.00
2018-06-12T12:42:23.414Z,5900.00
2018-06-12T12:43:23.471Z,5784.00
2018-06-12T12:44:23.499Z,5676.00
2018-06-12T12:45:23.772Z,5580.00
2018-06-12T12:46:23.923Z,5472.00
2018-06-12T12:47:23.611Z,5300.00
2018-06-12T12:48:23.707Z,5104.00
2018-06-12T12:49:23.667Z,4964.00
2018-06-12T12:50:23.797Z,4912.00
2018-06-12T12:51:23.985Z,4860.00
2018-06-12T12:52:23.824Z,4784.00
2018-06-12T12:53:23.817Z,4668.00
2018-06-12T12:54:23.845Z,4520.00
2018-06-12T12:55:23.878Z,4356.00
2018-06-12T12:56:23.913Z,4204.00
2018-06-12T12:57:24.248Z,4048.00
2018-06-12T12:58:24.004Z,3908.00
2018-06-12T12:59:24.019Z,3780.00
2018-06-12T13:00:24.052Z,3744.00
2018-06-12T13:01:24.092Z,3740.00
2018-06-12T13:02:24.135Z,3688.00
2018-06-12T13:03:24.483Z,3708.00
2018-06-12T13:04:24.196Z,3796.00
2018-06-12T13:05:24.231Z,3896.00
2018-06-12T13:06:24.268Z,4108.00
2018-06-12T13:07:24.299Z,4308.00
2018-06-12T13:08:24.335Z,4388.00
2018-06-12T13:09:24.378Z,4364.00
2018-06-12T13:10:24.711Z,4300.00
2018-06-12T13:11:24.879Z,4160.00
2018-06-12T13:12:24.482Z,4000.00
2018-06-12T13:13:24.534Z,3888.00
2018-06-12T13:14:24.548Z,3832.00
2018-06-12T13:15:24.637Z,3788.00
2018-06-12T13:16:24.622Z,3768.00
2018-06-12T13:17:24.904Z,3752.00
2018-06-12T13:18:24.762Z,3744.00
2018-06-12T13:19:24.727Z,3744.00
2018-06-12T13:20:24.786Z,3752.00
2018-06-12T13:21:24.795Z,3764.00
2018-06-12T13:22:24.840Z,3776.00
2018-06-12T13:23:24.874Z,3784.00
2018-06-12T13:24:25.159Z,3776.00
2018-06-12T13:25:24.939Z,3752.00
2018-06-12T13:26:24.974Z,3712.00
2018-06-12T13:27:25.019Z,3680.00
2018-06-12T13:28:25.093Z,3668.00
2018-06-12T13:29:25.093Z,3684.00
2018-06-12T13:30:25.135Z,3728.00
2018-06-12T13:31:25.451Z,3780.00
2018-06-12T13:32:25.192Z,3828.00
2018-06-12T13:33:25.265Z,3872.00
2018-06-12T13:34:25.256Z,3908.00
2018-06-12T13:35:25.289Z,3948.00
2018-06-12T13:36:25.332Z,4004.00
2018-06-12T13:37:25.361Z,4068.00
2018-06-12T13:38:25.648Z,4128.00
2018-06-12T13:39:25.431Z,4212.00
2018-06-12T13:40:25.465Z,4320.00
2018-06-12T13:41:25.507Z,4428.00
2018-06-12T13:42:25.546Z,4540.00
2018-06-12T13:43:25.572Z,4620.00